The latest weather and runway conditions for major airports within the Toronto FIR.

CYYZ - Toronto-Lester B. Pearson International
CYYZ 181000Z 04007KT 15SM FEW080 SCT180 BKN240 20/18 A2994 RMK AC2AC2CC2 SLP137 DENSITY ALT 1300FT
Suggested Runways: Departures: 06L, Arrivals: 05
CYOW - Ottawa Macdonald-Cartier International
CYOW 181000Z 01008KT 15SM FEW012 FEW045 BKN230 16/14 A2992 RMK ST1SC2CI5 ST TR SLP134 DENSITY ALT 700FT
Suggested Runway: 32
CYTZ - Billy Bishop Toronto City
CYTZ 181000Z AUTO 02008KT 9SM FEW095 SCT170 SCT250 21/18 A2992 RMK SLP133 DENSITY ALT 1000FT
Suggested Runway: 08
CYXU - London International
CYXU 181000Z 05003KT 15SM FEW120 18/18 A2994 RMK AC2 SLP138 DENSITY ALT 1500FT
Suggested Runway: 33
CYHM - John C. Munro Hamilton International
CYHM 181000Z 03006KT 15SM FEW013 FEW040 SCT065 BKN120 19/18 A2993 RMK CF1SC1SC2AC2 SLP135 DENSITY ALT 1400FT
Suggested Runway: 12
CYKF - Region of Waterloo International
CYKF 181000Z AUTO 36004KT 9SM CLR 18/18 A2995 RMK SLP141 DENSITY ALT 1600FT
Suggested Runway: 08
CYAM - Sault Ste. Marie
CYAM 181000Z 32002KT 15SM FEW190 SCT230 BKN260 12/11 A3005 RMK AC2CI2CI2 SLP180
Suggested Runway: 30
CYTR - Canadian Forces Base Trenton
CYTR 181000Z 03003KT 15SM SCT140 OVC180 17/15 A2992 RMK AC4AC4 SLP134
Suggested Runway: 06
CYKZ - Toronto/Buttonville Municipal
CYKZ 181000Z 03003KT 15SM FEW015 FEW120 BKN170 19/18 A2994 RMK SC1AC2AC5 SC TR SLP140 DENSITY ALT 1300FT
Suggested Runway: 03
CYOO - Toronto/Oshawa Executive
CYOO 181000Z AUTO 01003KT 9SM BKN250 19/18 A2993 RMK SLP137 DENSITY ALT 900FT
Suggested Runway: 05